Time;durP1;ratioP1;P1;durP2;ratioP2;P2;SDS_P1;SDS_P2;PMS_P1;PMS_P2;Temp;Humidity;BMP_temperature;BMP_pressure;BME280_temperature;BME280_humidity;BME280_pressure;Samples;Min_cycle;Max_cycle;Signal;HPM_P1;HPM_P2
2022/05/10 00:02:21;;;;;;;2.20;1.67;;;;;;;;;;1764091;80;21509;-66
2022/05/10 00:04:49;;;;;;;3.55;1.80;;;;;;;;;;1733965;81;21088;-66
2022/05/10 00:07:14;;;;;;;1.60;1.50;;;;;;;;;;1737282;81;21034;-67
2022/05/10 00:09:40;;;;;;;1.90;1.47;;;;;;;;;;1719825;82;21580;-66
2022/05/10 00:12:08;;;;;;;2.72;1.60;;;;;;;;;;1725256;82;21017;-66
2022/05/10 00:14:35;;;;;;;2.98;1.80;;;;;;;;;;1752118;82;21024;-66
2022/05/10 00:17:01;;;;;;;2.72;1.65;;;;;;;;;;1752294;82;21075;-66
2022/05/10 00:19:27;;;;;;;3.52;1.80;;;;;;;;;;1740746;82;20986;-66
2022/05/10 00:21:54;;;;;;;2.27;1.60;;;;;;;;;;1717240;82;21049;-66
2022/05/10 00:24:20;;;;;;;2.55;1.80;;;;;;;;;;1717413;82;21029;-66
2022/05/10 00:26:48;;;;;;;2.65;1.90;;;;;;;;;;1719424;82;21037;-66
2022/05/10 00:29:15;;;;;;;2.20;1.72;;;;;;;;;;1730862;82;21013;-66
2022/05/10 00:31:42;;;;;;;4.72;1.98;;;;;;;;;;1737557;82;21017;-66
2022/05/10 00:34:08;;;;;;;2.55;1.70;;;;;;;;;;1749288;82;21033;-66
2022/05/10 00:36:34;;;;;;;2.30;1.80;;;;;;;;;;1751217;82;20977;-66
2022/05/10 00:39:00;;;;;;;2.67;1.92;;;;;;;;;;1750939;82;21532;-66
2022/05/10 00:41:30;;;;;;;2.60;1.90;;;;;;;;;;1719066;82;21564;-66
2022/05/10 00:44:16;;;;;;;2.85;1.80;;;;;;;;;;1719289;82;21045;-66
2022/05/10 00:46:44;;;;;;;4.85;1.80;;;;;;;;;;1709512;82;21078;-66
2022/05/10 00:49:15;;;;;;;4.15;2.10;;;;;;;;;;1732577;82;20985;-66
2022/05/10 00:51:55;;;;;;;2.98;1.98;;;;;;;;;;1751342;82;21020;-66
2022/05/10 00:54:32;;;;;;;3.12;1.85;;;;;;;;;;1741576;82;21072;-68
2022/05/10 00:57:00;;;;;;;2.35;2.00;;;;;;;;;;1717067;82;21084;-66
2022/05/10 00:59:30;;;;;;;2.12;1.65;;;;;;;;;;1719619;82;21088;-66
2022/05/10 01:04:50;;;;;;;3.25;1.90;;;;;;;;;;1731980;79;21111;-69
2022/05/10 01:07:18;;;;;;;2.83;2.17;;;;;;;;;;1697388;84;21290;-68
2022/05/10 01:09:47;;;;;;;2.83;1.82;;;;;;;;;;1659509;86;21653;-68
2022/05/10 01:12:30;;;;;;;3.10;1.80;;;;;;;;;;1666673;86;21552;-68
2022/05/10 01:15:02;;;;;;;2.60;1.90;;;;;;;;;;1669983;86;21106;-68
2022/05/10 01:17:28;;;;;;;3.58;1.82;;;;;;;;;;1701514;84;21091;-68
2022/05/10 01:19:54;;;;;;;3.35;2.10;;;;;;;;;;1652084;86;21025;-68
2022/05/10 01:22:25;;;;;;;2.80;1.85;;;;;;;;;;1662591;86;21017;-68
2022/05/10 01:24:56;;;;;;;3.77;2.15;;;;;;;;;;1697239;84;21084;-68
2022/05/10 01:27:40;;;;;;;3.87;1.90;;;;;;;;;;1664558;86;21088;-68
2022/05/10 01:30:25;;;;;;;2.77;1.90;;;;;;;;;;1684076;85;21043;-68
2022/05/10 01:35:54;;;;;;;3.52;2.02;;;;;;;;;;1662838;85;21078;-69
2022/05/10 01:38:31;;;;;;;3.72;2.00;;;;;;;;;;1674316;85;21092;-68
2022/05/10 01:40:59;;;;;;;2.80;2.00;;;;;;;;;;1658658;85;21511;-68
2022/05/10 01:43:28;;;;;;;4.00;2.25;;;;;;;;;;1680579;85;21137;-68
2022/05/10 01:45:59;;;;;;;3.98;2.05;;;;;;;;;;1668512;85;21023;-68
2022/05/10 01:48:27;;;;;;;4.28;2.30;;;;;;;;;;1674461;85;21072;-68
2022/05/10 01:50:56;;;;;;;3.72;2.30;;;;;;;;;;1686118;85;21632;-68
2022/05/10 01:53:27;;;;;;;4.17;1.85;;;;;;;;;;1671641;85;21001;-68
2022/05/10 01:56:01;;;;;;;3.57;1.93;;;;;;;;;;1656142;85;21129;-67
2022/05/10 01:58:28;;;;;;;3.65;2.20;;;;;;;;;;1660127;85;21127;-68
2022/05/10 02:00:57;;;;;;;3.80;2.20;;;;;;;;;;1678683;85;21025;-67
2022/05/10 02:03:34;;;;;;;3.00;2.00;;;;;;;;;;1674470;85;21065;-67
2022/05/10 02:06:19;;;;;;;3.37;2.20;;;;;;;;;;1663826;86;21065;-69
2022/05/10 02:09:04;;;;;;;3.40;2.20;;;;;;;;;;1663960;86;21093;-69
2022/05/10 02:11:32;;;;;;;3.83;2.25;;;;;;;;;;1664166;86;21057;-68
2022/05/10 02:14:00;;;;;;;4.75;2.30;;;;;;;;;;1696620;84;21103;-68
2022/05/10 02:16:27;;;;;;;5.10;2.30;;;;;;;;;;1696207;84;21076;-68
2022/05/10 02:18:55;;;;;;;3.47;2.10;;;;;;;;;;1665328;86;21052;-68
2022/05/10 02:21:23;;;;;;;4.58;2.30;;;;;;;;;;1654397;86;21575;-68
2022/05/10 02:23:57;;;;;;;4.95;2.30;;;;;;;;;;1665145;86;21532;-68
2022/05/10 02:26:40;;;;;;;4.70;2.47;;;;;;;;;;1645368;86;22104;-68
2022/05/10 02:29:08;;;;;;;4.87;2.47;;;;;;;;;;1665758;86;21595;-68
2022/05/10 02:34:38;;;;;;;5.37;2.85;;;;;;;;;;1665229;86;21076;-68
2022/05/10 02:37:05;;;;;;;6.25;2.70;;;;;;;;;;1665206;86;21092;-69
2022/05/10 02:39:31;;;;;;;5.65;2.50;;;;;;;;;;1665408;86;21551;-68
2022/05/10 02:41:58;;;;;;;5.17;2.30;;;;;;;;;;1665269;86;21675;-68
2022/05/10 02:44:24;;;;;;;3.25;1.98;;;;;;;;;;1665380;86;21048;-68
2022/05/10 02:46:50;;;;;;;3.33;2.35;;;;;;;;;;1665391;86;21589;-68
2022/05/10 02:49:17;;;;;;;5.12;2.20;;;;;;;;;;1665134;86;21084;-68
2022/05/10 02:51:44;;;;;;;4.03;2.10;;;;;;;;;;1644701;86;21132;-65
2022/05/10 02:54:10;;;;;;;4.35;2.47;;;;;;;;;;1665248;86;21072;-65
2022/05/10 02:56:37;;;;;;;4.80;2.30;;;;;;;;;;1665415;86;21088;-64
2022/05/10 02:59:08;;;;;;;5.42;2.37;;;;;;;;;;1665344;86;21639;-64
2022/05/10 03:01:35;;;;;;;6.42;2.87;;;;;;;;;;1665552;86;21088;-64
2022/05/10 03:04:02;;;;;;;7.53;2.60;;;;;;;;;;1665209;86;21187;-65
2022/05/10 03:06:28;;;;;;;8.80;3.77;;;;;;;;;;1665239;86;21109;-64
2022/05/10 03:08:56;;;;;;;7.17;3.52;;;;;;;;;;1665471;86;21080;-64
2022/05/10 03:11:22;;;;;;;8.05;3.75;;;;;;;;;;1665416;86;21098;-64
2022/05/10 03:13:48;;;;;;;8.95;4.42;;;;;;;;;;1665522;86;20998;-65
2022/05/10 03:16:16;;;;;;;8.83;4.10;;;;;;;;;;1665460;86;21571;-65
2022/05/10 03:18:42;;;;;;;10.00;4.85;;;;;;;;;;1665419;86;21092;-63
2022/05/10 03:21:08;;;;;;;10.23;5.05;;;;;;;;;;1665462;86;21029;-64
2022/05/10 03:23:35;;;;;;;10.72;4.85;;;;;;;;;;1665095;86;21088;-64
2022/05/10 03:26:02;;;;;;;11.43;4.78;;;;;;;;;;1665159;86;21025;-64
2022/05/10 03:28:29;;;;;;;12.43;5.17;;;;;;;;;;1665819;85;21040;-64
2022/05/10 03:30:55;;;;;;;15.20;5.62;;;;;;;;;;1665032;86;21083;-64
2022/05/10 03:33:22;;;;;;;11.95;5.20;;;;;;;;;;1665397;86;21128;-64
2022/05/10 03:35:48;;;;;;;12.35;6.17;;;;;;;;;;1641543;86;21045;-64
2022/05/10 03:38:14;;;;;;;14.13;5.87;;;;;;;;;;1665379;86;21129;-64
2022/05/10 03:40:41;;;;;;;9.53;5.25;;;;;;;;;;1665042;86;21064;-64
2022/05/10 03:43:09;;;;;;;11.55;5.67;;;;;;;;;;1665276;86;21107;-65
2022/05/10 03:45:36;;;;;;;10.90;6.03;;;;;;;;;;1665181;86;21972;-64
2022/05/10 03:48:02;;;;;;;12.43;6.08;;;;;;;;;;1665267;86;22378;-64
2022/05/10 03:50:29;;;;;;;12.25;7.05;;;;;;;;;;1665505;86;21068;-64
2022/05/10 03:52:55;;;;;;;16.95;7.78;;;;;;;;;;1665209;86;21354;-64
2022/05/10 03:55:23;;;;;;;15.00;8.13;;;;;;;;;;1665369;86;21080;-64
2022/05/10 03:57:49;;;;;;;13.22;7.25;;;;;;;;;;1665630;86;21591;-65
2022/05/10 04:00:17;;;;;;;12.98;7.08;;;;;;;;;;1665332;86;21406;-64
2022/05/10 04:02:44;;;;;;;18.10;8.55;;;;;;;;;;1665166;86;21044;-64
2022/05/10 04:05:10;;;;;;;14.38;8.50;;;;;;;;;;1666241;86;21104;-64
2022/05/10 04:07:36;;;;;;;16.10;9.15;;;;;;;;;;1667735;86;21072;-64
2022/05/10 04:10:03;;;;;;;16.15;9.18;;;;;;;;;;1667492;86;21556;-64
2022/05/10 04:12:29;;;;;;;15.28;8.25;;;;;;;;;;1667728;86;21103;-64
2022/05/10 04:14:56;;;;;;;14.28;8.50;;;;;;;;;;1667631;86;21115;-64
2022/05/10 04:17:22;;;;;;;13.68;8.43;;;;;;;;;;1667610;86;21053;-64
2022/05/10 04:19:48;;;;;;;15.58;8.10;;;;;;;;;;1667329;86;21100;-64
2022/05/10 04:22:15;;;;;;;14.78;8.50;;;;;;;;;;1667806;86;21147;-65
2022/05/10 04:24:42;;;;;;;16.65;9.48;;;;;;;;;;1667312;86;21117;-65
2022/05/10 04:27:08;;;;;;;18.50;10.08;;;;;;;;;;1667701;86;21080;-65
2022/05/10 04:29:34;;;;;;;14.95;8.35;;;;;;;;;;1667304;86;21619;-65
2022/05/10 04:32:00;;;;;;;15.20;9.78;;;;;;;;;;1667294;86;21113;-65
2022/05/10 04:34:26;;;;;;;15.95;8.93;;;;;;;;;;1667829;86;21174;-64
2022/05/10 04:36:52;;;;;;;15.78;9.85;;;;;;;;;;1667644;86;22158;-64
2022/05/10 04:39:18;;;;;;;16.07;8.93;;;;;;;;;;1667797;86;21588;-64
2022/05/10 04:41:46;;;;;;;19.20;8.90;;;;;;;;;;1667570;86;21099;-65
2022/05/10 04:44:13;;;;;;;13.58;8.20;;;;;;;;;;1667565;86;22217;-65
2022/05/10 04:46:40;;;;;;;13.60;7.40;;;;;;;;;;1667823;86;21463;-65
2022/05/10 04:49:07;;;;;;;10.98;7.80;;;;;;;;;;1667477;86;21139;-64
2022/05/10 04:51:35;;;;;;;11.50;6.70;;;;;;;;;;1667739;86;21115;-64
2022/05/10 04:54:01;;;;;;;13.43;7.37;;;;;;;;;;1667507;86;21144;-65
2022/05/10 04:56:28;;;;;;;9.50;6.22;;;;;;;;;;1667485;86;21068;-64
2022/05/10 04:58:56;;;;;;;12.98;6.65;;;;;;;;;;1667274;86;21563;-64
2022/05/10 05:01:26;;;;;;;10.75;6.45;;;;;;;;;;1667360;86;21144;-65
2022/05/10 05:03:52;;;;;;;9.20;6.33;;;;;;;;;;1667582;86;21076;-64
2022/05/10 05:06:17;;;;;;;9.08;5.80;;;;;;;;;;1648973;86;21078;-65
2022/05/10 05:08:44;;;;;;;12.25;6.50;;;;;;;;;;1667664;86;21077;-64
2022/05/10 05:11:11;;;;;;;10.50;6.25;;;;;;;;;;1667608;86;21116;-64
2022/05/10 05:13:37;;;;;;;11.85;7.00;;;;;;;;;;1667368;86;21099;-65
2022/05/10 05:16:04;;;;;;;10.58;6.05;;;;;;;;;;1667519;86;21120;-65
2022/05/10 05:18:30;;;;;;;9.25;6.10;;;;;;;;;;1647671;86;21587;-65
2022/05/10 05:20:57;;;;;;;9.70;5.45;;;;;;;;;;1658764;86;21057;-65
2022/05/10 05:23:23;;;;;;;10.93;6.08;;;;;;;;;;1659059;86;21089;-66
2022/05/10 05:25:50;;;;;;;9.78;5.97;;;;;;;;;;1656931;86;21060;-64
2022/05/10 05:28:16;;;;;;;9.50;4.67;;;;;;;;;;1658889;86;21065;-64
2022/05/10 05:30:43;;;;;;;8.80;5.58;;;;;;;;;;1657793;86;21090;-67
2022/05/10 05:33:10;;;;;;;7.15;4.90;;;;;;;;;;1668050;85;21616;-69
2022/05/10 05:35:36;;;;;;;9.08;5.33;;;;;;;;;;1684483;85;21053;-69
2022/05/10 05:38:02;;;;;;;11.88;6.72;;;;;;;;;;1657739;86;21080;-68
2022/05/10 05:40:29;;;;;;;8.55;5.40;;;;;;;;;;1658809;86;21049;-68
2022/05/10 05:42:55;;;;;;;7.30;4.78;;;;;;;;;;1658975;86;21117;-68
2022/05/10 05:45:22;;;;;;;7.10;3.90;;;;;;;;;;1659193;86;21100;-68
2022/05/10 05:47:49;;;;;;;7.33;4.87;;;;;;;;;;1658729;86;21068;-68
2022/05/10 05:50:16;;;;;;;7.03;3.98;;;;;;;;;;1658906;86;21017;-68
2022/05/10 05:52:43;;;;;;;6.33;3.77;;;;;;;;;;1659776;85;21620;-68
2022/05/10 05:55:09;;;;;;;6.40;3.35;;;;;;;;;;1658977;86;21064;-69
2022/05/10 05:57:35;;;;;;;7.58;4.40;;;;;;;;;;1669357;85;21057;-67
2022/05/10 06:00:02;;;;;;;6.50;4.47;;;;;;;;;;1686569;85;21112;-69
2022/05/10 06:02:30;;;;;;;6.33;3.30;;;;;;;;;;1685318;85;21034;-69
2022/05/10 06:04:56;;;;;;;7.45;3.83;;;;;;;;;;1679105;84;21672;-69
2022/05/10 06:07:22;;;;;;;8.10;3.40;;;;;;;;;;1663932;86;21023;-68
2022/05/10 06:09:48;;;;;;;5.78;3.25;;;;;;;;;;1672302;85;21065;-69
2022/05/10 06:12:16;;;;;;;5.40;3.37;;;;;;;;;;1663901;86;21042;-69
2022/05/10 06:14:42;;;;;;;5.12;2.95;;;;;;;;;;1663735;86;21506;-68
2022/05/10 06:17:08;;;;;;;5.90;3.25;;;;;;;;;;1663733;86;21049;-69
2022/05/10 06:19:36;;;;;;;4.50;2.45;;;;;;;;;;1696345;84;21034;-69
2022/05/10 06:22:02;;;;;;;4.30;2.65;;;;;;;;;;1696276;84;21038;-69
2022/05/10 06:24:28;;;;;;;4.05;2.65;;;;;;;;;;1696407;84;21054;-69
2022/05/10 06:26:54;;;;;;;3.72;2.30;;;;;;;;;;1697893;83;21010;-69
2022/05/10 06:29:20;;;;;;;3.92;2.58;;;;;;;;;;1696832;84;21050;-68
2022/05/10 06:31:46;;;;;;;4.97;2.90;;;;;;;;;;1696253;84;21097;-69
2022/05/10 06:34:13;;;;;;;5.33;2.98;;;;;;;;;;1695189;85;21166;-69
2022/05/10 06:36:39;;;;;;;5.85;2.83;;;;;;;;;;1696164;84;21152;-68
2022/05/10 06:39:06;;;;;;;7.80;3.62;;;;;;;;;;1696687;84;21548;-67
2022/05/10 06:41:32;;;;;;;6.60;3.17;;;;;;;;;;1696402;84;21027;-67
2022/05/10 06:43:58;;;;;;;4.60;3.02;;;;;;;;;;1696790;84;21022;-67
2022/05/10 06:46:25;;;;;;;7.45;3.65;;;;;;;;;;1696671;84;21077;-67
2022/05/10 06:48:52;;;;;;;6.35;3.98;;;;;;;;;;1695791;84;21030;-68
2022/05/10 06:51:19;;;;;;;7.20;3.65;;;;;;;;;;1696166;84;21074;-67
2022/05/10 06:53:46;;;;;;;7.45;3.62;;;;;;;;;;1698318;83;21041;-68
2022/05/10 06:56:12;;;;;;;5.30;3.25;;;;;;;;;;1697102;84;21049;-67
2022/05/10 06:58:38;;;;;;;7.08;4.50;;;;;;;;;;1696805;84;21042;-67
2022/05/10 07:01:11;;;;;;;7.15;3.90;;;;;;;;;;1696725;84;21533;-67
2022/05/10 07:03:33;;;;;;;7.10;4.10;;;;;;;;;;1695325;84;21594;-67
2022/05/10 07:06:00;;;;;;;5.85;4.20;;;;;;;;;;1707101;83;21142;-67
2022/05/10 07:08:26;;;;;;;7.87;4.53;;;;;;;;;;1736094;83;21026;-67
2022/05/10 07:10:52;;;;;;;8.43;5.40;;;;;;;;;;1719020;83;21020;-67
2022/05/10 07:13:20;;;;;;;5.37;4.08;;;;;;;;;;1703719;84;21056;-67
2022/05/10 07:15:46;;;;;;;6.55;4.67;;;;;;;;;;1704541;84;21088;-67
2022/05/10 07:18:12;;;;;;;8.93;4.87;;;;;;;;;;1706393;84;21025;-67
2022/05/10 07:20:39;;;;;;;5.47;3.12;;;;;;;;;;1705936;84;21534;-67
2022/05/10 07:23:05;;;;;;;7.30;4.08;;;;;;;;;;1710006;83;21574;-67
2022/05/10 07:25:32;;;;;;;7.87;3.60;;;;;;;;;;1706218;84;21085;-67
2022/05/10 07:27:58;;;;;;;5.55;2.95;;;;;;;;;;1706616;84;21157;-67
2022/05/10 07:30:26;;;;;;;5.60;3.27;;;;;;;;;;1707079;84;21087;-67
2022/05/10 07:32:53;;;;;;;3.98;2.50;;;;;;;;;;1675525;86;21056;-67
2022/05/10 07:38:06;;;;;;;4.62;3.00;;;;;;;;;;1632408;86;21146;-66
2022/05/10 07:40:32;;;;;;;4.80;3.22;;;;;;;;;;1647501;87;21105;-67
2022/05/10 07:42:59;;;;;;;6.85;3.58;;;;;;;;;;1648053;87;21019;-66
2022/05/10 07:45:25;;;;;;;5.75;3.70;;;;;;;;;;1648016;87;21636;-67
2022/05/10 07:47:53;;;;;;;6.58;3.42;;;;;;;;;;1647970;87;21048;-66
2022/05/10 07:50:18;;;;;;;5.55;3.58;;;;;;;;;;1648204;87;21060;-68
2022/05/10 07:52:44;;;;;;;8.10;3.45;;;;;;;;;;1648176;87;21025;-67
2022/05/10 07:55:15;;;;;;;7.08;3.87;;;;;;;;;;1647766;87;21072;-67
2022/05/10 07:57:43;;;;;;;6.70;3.85;;;;;;;;;;1647930;87;21087;-66
2022/05/10 08:00:11;;;;;;;7.28;4.55;;;;;;;;;;1654792;86;21144;-66
2022/05/10 08:02:43;;;;;;;6.40;4.40;;;;;;;;;;1648401;86;21048;-67
2022/05/10 08:05:13;;;;;;;6.90;4.30;;;;;;;;;;1647329;86;21670;-67
2022/05/10 08:07:39;;;;;;;8.98;5.15;;;;;;;;;;1655087;84;21050;-67
2022/05/10 08:10:07;;;;;;;9.08;3.98;;;;;;;;;;1696799;84;21137;-66
2022/05/10 08:12:34;;;;;;;6.70;4.15;;;;;;;;;;1695161;84;21134;-68
2022/05/10 08:15:00;;;;;;;8.53;4.60;;;;;;;;;;1698149;83;21022;-67
2022/05/10 08:17:25;;;;;;;6.90;4.37;;;;;;;;;;1696913;84;21608;-69
2022/05/10 08:19:51;;;;;;;7.37;4.90;;;;;;;;;;1696865;83;21058;-69
2022/05/10 08:22:17;;;;;;;8.93;4.72;;;;;;;;;;1696742;84;21030;-68
2022/05/10 08:24:45;;;;;;;10.75;4.12;;;;;;;;;;1696891;84;21575;-68
2022/05/10 08:27:11;;;;;;;10.43;4.95;;;;;;;;;;1696117;84;21012;-67
2022/05/10 08:29:37;;;;;;;9.33;5.00;;;;;;;;;;1695201;84;21078;-67
2022/05/10 08:32:03;;;;;;;13.53;5.90;;;;;;;;;;1696571;84;21042;-64
2022/05/10 08:34:29;;;;;;;9.33;5.35;;;;;;;;;;1696952;84;21038;-68
2022/05/10 08:36:56;;;;;;;12.00;5.85;;;;;;;;;;1696706;84;21136;-70
2022/05/10 08:39:23;;;;;;;10.88;5.62;;;;;;;;;;1696659;84;21067;-70
2022/05/10 08:41:52;;;;;;;10.10;5.28;;;;;;;;;;1695377;85;21042;-69
2022/05/10 08:44:20;;;;;;;15.45;5.87;;;;;;;;;;1695599;84;21045;-68
2022/05/10 08:46:54;;;;;;;15.08;6.87;;;;;;;;;;1696761;84;21081;-70
2022/05/10 08:49:38;;;;;;;14.15;6.55;;;;;;;;;;1701211;83;21030;-69
2022/05/10 08:52:05;;;;;;;13.78;6.12;;;;;;;;;;1725977;83;21057;-71
2022/05/10 08:54:31;;;;;;;12.70;6.78;;;;;;;;;;1725948;83;21573;-69
2022/05/10 08:56:59;;;;;;;11.35;6.10;;;;;;;;;;1725984;83;21053;-69
2022/05/10 08:59:45;;;;;;;11.97;5.95;;;;;;;;;;1718215;83;21082;-69
2022/05/10 09:02:13;;;;;;;10.63;5.85;;;;;;;;;;1696942;84;21561;-68
2022/05/10 09:04:44;;;;;;;9.65;4.15;;;;;;;;;;1696758;83;21121;-70
2022/05/10 09:07:28;;;;;;;6.87;3.65;;;;;;;;;;1704212;83;21061;-71
2022/05/10 09:09:56;;;;;;;9.30;4.08;;;;;;;;;;1706893;84;21021;-70
2022/05/10 09:12:27;;;;;;;7.50;3.77;;;;;;;;;;1706887;84;21042;-69
2022/05/10 09:14:55;;;;;;;7.53;4.20;;;;;;;;;;1706254;84;21112;-69
2022/05/10 09:17:22;;;;;;;5.25;3.10;;;;;;;;;;1706726;84;21097;-69
2022/05/10 09:19:49;;;;;;;5.33;3.25;;;;;;;;;;1706847;84;20994;-68
2022/05/10 09:22:17;;;;;;;5.30;2.65;;;;;;;;;;1678400;84;21016;-69
2022/05/10 09:24:49;;;;;;;5.97;3.22;;;;;;;;;;1675461;86;21091;-68
2022/05/10 09:27:16;;;;;;;6.33;3.22;;;;;;;;;;1653338;86;21064;-68
2022/05/10 09:29:44;;;;;;;5.45;3.15;;;;;;;;;;1700603;84;21559;-68
2022/05/10 09:35:10;;;;;;;6.75;3.67;;;;;;;;;;1674849;86;21043;-70
2022/05/10 09:37:39;;;;;;;5.30;3.20;;;;;;;;;;1675458;86;21621;-70
2022/05/10 09:40:08;;;;;;;8.23;4.90;;;;;;;;;;1675813;84;21662;-65
2022/05/10 09:42:35;;;;;;;6.20;2.90;;;;;;;;;;1675147;85;21080;-65
2022/05/10 09:45:06;;;;;;;6.28;3.12;;;;;;;;;;1674734;86;21032;-65
2022/05/10 09:47:33;;;;;;;9.25;5.40;;;;;;;;;;1674491;86;21084;-65
2022/05/10 09:50:10;;;;;;;8.10;4.12;;;;;;;;;;1675195;86;21223;-65
2022/05/10 09:52:38;;;;;;;7.75;4.90;;;;;;;;;;1675286;86;21590;-66
2022/05/10 09:55:07;;;;;;;6.95;3.80;;;;;;;;;;1675064;86;21133;-65
2022/05/10 09:57:35;;;;;;;4.40;2.70;;;;;;;;;;1675701;86;21571;-65
2022/05/10 10:00:01;;;;;;;9.25;4.95;;;;;;;;;;1677392;84;21119;-65
2022/05/10 10:02:31;;;;;;;8.85;3.20;;;;;;;;;;1703765;84;21120;-66
2022/05/10 10:04:57;;;;;;;6.90;3.58;;;;;;;;;;1701313;83;21147;-65
2022/05/10 10:07:25;;;;;;;5.37;3.30;;;;;;;;;;1660660;86;21072;-66
2022/05/10 10:09:53;;;;;;;6.92;4.10;;;;;;;;;;1662409;86;21080;-67
2022/05/10 10:12:35;;;;;;;6.47;3.47;;;;;;;;;;1642103;86;21082;-65
2022/05/10 10:15:03;;;;;;;6.37;3.33;;;;;;;;;;1673244;86;21523;-67
2022/05/10 10:17:31;;;;;;;5.12;2.87;;;;;;;;;;1654624;86;21098;-67
2022/05/10 10:20:01;;;;;;;5.95;2.92;;;;;;;;;;1656883;85;21013;-67
2022/05/10 10:22:30;;;;;;;8.20;4.78;;;;;;;;;;1665587;86;21084;-67
2022/05/10 10:25:04;;;;;;;8.10;3.55;;;;;;;;;;1697009;84;21070;-66
2022/05/10 10:27:33;;;;;;;5.45;3.00;;;;;;;;;;1696832;84;21034;-67
2022/05/10 10:30:04;;;;;;;3.50;2.40;;;;;;;;;;1696470;84;21002;-66
2022/05/10 10:32:41;;;;;;;5.65;2.47;;;;;;;;;;1696295;84;21109;-68
2022/05/10 10:35:18;;;;;;;5.97;2.62;;;;;;;;;;1696549;84;21206;-68
2022/05/10 10:37:54;;;;;;;4.87;2.75;;;;;;;;;;1696681;84;21054;-68
2022/05/10 10:40:30;;;;;;;6.20;2.67;;;;;;;;;;1696964;84;21078;-68
2022/05/10 10:43:10;;;;;;;6.12;2.70;;;;;;;;;;1696983;84;21082;-68
2022/05/10 10:45:52;;;;;;;6.30;2.80;;;;;;;;;;1696784;84;21046;-68
2022/05/10 10:48:19;;;;;;;5.42;2.42;;;;;;;;;;1696719;84;21531;-68
2022/05/10 10:50:48;;;;;;;3.25;2.35;;;;;;;;;;1695644;84;21066;-69
2022/05/10 10:53:14;;;;;;;5.60;2.80;;;;;;;;;;1665342;86;21056;-67
2022/05/10 10:55:47;;;;;;;4.58;2.50;;;;;;;;;;1665524;86;21017;-69
2022/05/10 10:58:32;;;;;;;4.62;2.80;;;;;;;;;;1665475;86;21627;-65
2022/05/10 11:01:03;;;;;;;5.42;2.70;;;;;;;;;;1663652;86;21536;-68
2022/05/10 11:03:36;;;;;;;4.53;2.50;;;;;;;;;;1665428;86;21068;-68
2022/05/10 11:06:20;;;;;;;4.83;2.52;;;;;;;;;;1665245;86;21705;-70
2022/05/10 11:08:49;;;;;;;5.87;2.52;;;;;;;;;;1667816;86;21591;-67
2022/05/10 11:11:23;;;;;;;5.40;2.60;;;;;;;;;;1667473;86;21584;-69
2022/05/10 11:14:07;;;;;;;4.78;2.60;;;;;;;;;;1668506;84;21527;-69
2022/05/10 11:16:44;;;;;;;5.30;2.90;;;;;;;;;;1660653;86;21056;-70
2022/05/10 11:19:13;;;;;;;4.55;2.72;;;;;;;;;;1667419;84;21009;-69
2022/05/10 11:21:41;;;;;;;6.25;2.95;;;;;;;;;;1667551;86;21631;-68
2022/05/10 11:25:24;;;;;;;5.58;3.20;;;;;;;;;;1815558;78;23681;-68
2022/05/10 11:28:02;;;;;;;5.30;2.92;;;;;;;;;;1761445;81;21041;-69
2022/05/10 11:30:30;;;;;;;5.78;2.50;;;;;;;;;;1758793;81;21017;-68
2022/05/10 11:33:01;;;;;;;5.10;2.85;;;;;;;;;;1758341;81;21564;-67
2022/05/10 11:35:35;;;;;;;4.42;2.55;;;;;;;;;;1761979;81;21479;-70
2022/05/10 11:38:14;;;;;;;5.47;3.22;;;;;;;;;;1754553;81;21100;-71
2022/05/10 11:40:45;;;;;;;5.95;2.87;;;;;;;;;;1758234;81;21091;-68
2022/05/10 11:43:26;;;;;;;5.85;2.98;;;;;;;;;;1733665;81;21063;-68
2022/05/10 11:46:04;;;;;;;4.80;2.45;;;;;;;;;;1756048;81;21687;-68
2022/05/10 11:48:36;;;;;;;5.00;3.00;;;;;;;;;;1718451;82;21060;-71
2022/05/10 11:53:50;;;;;;;5.33;3.58;;;;;;;;;;1757788;81;21040;-69
2022/05/10 11:56:16;;;;;;;7.25;3.52;;;;;;;;;;1757520;81;20985;-65
2022/05/10 11:58:42;;;;;;;12.07;6.33;;;;;;;;;;1762368;81;21032;-65
2022/05/10 12:01:11;;;;;;;9.18;4.60;;;;;;;;;;1760137;81;21076;-68
2022/05/10 12:03:43;;;;;;;6.17;4.08;;;;;;;;;;1743220;82;21135;-66
2022/05/10 12:06:26;;;;;;;12.55;5.40;;;;;;;;;;1725866;83;21086;-71
2022/05/10 12:09:01;;;;;;;9.05;4.00;;;;;;;;;;1702646;83;21012;-67
2022/05/10 12:11:37;;;;;;;90.62;37.53;;;;;;;;;;1702154;84;21100;-68
2022/05/10 12:22:21;;;;;;;5.10;3.45;;;;;;;;;;1659003;86;21039;-67
2022/05/10 12:24:47;;;;;;;6.75;3.77;;;;;;;;;;1659816;86;21563;-69
2022/05/10 12:27:16;;;;;;;5.97;3.17;;;;;;;;;;1660429;86;21431;-68
2022/05/10 12:29:44;;;;;;;7.33;5.12;;;;;;;;;;1677778;85;21081;-64
2022/05/10 12:32:28;;;;;;;7.95;4.30;;;;;;;;;;1717020;83;21022;-69
2022/05/10 12:35:04;;;;;;;16.95;7.87;;;;;;;;;;1717372;83;21013;-69
2022/05/10 12:37:31;;;;;;;13.08;6.00;;;;;;;;;;1716813;83;21048;-66
2022/05/10 12:39:59;;;;;;;9.78;4.75;;;;;;;;;;1716968;83;21033;-65
2022/05/10 12:42:43;;;;;;;8.58;3.90;;;;;;;;;;1714805;82;21025;-64
2022/05/10 12:45:17;;;;;;;8.48;3.70;;;;;;;;;;1678435;85;21616;-66
2022/05/10 12:47:46;;;;;;;5.80;3.20;;;;;;;;;;1712445;84;21010;-66
2022/05/10 12:50:31;;;;;;;5.83;3.45;;;;;;;;;;1712231;83;21045;-66
2022/05/10 12:52:57;;;;;;;5.25;2.90;;;;;;;;;;1712877;83;21063;-65
2022/05/10 12:55:25;;;;;;;4.85;3.05;;;;;;;;;;1678252;85;21595;-65
2022/05/10 12:57:53;;;;;;;7.83;3.35;;;;;;;;;;1711803;83;21581;-65
2022/05/10 13:00:27;;;;;;;5.75;3.20;;;;;;;;;;1678890;85;21053;-65
2022/05/10 13:02:55;;;;;;;7.15;3.40;;;;;;;;;;1713915;82;21016;-65
2022/05/10 13:05:24;;;;;;;4.35;2.70;;;;;;;;;;1712298;83;21033;-66
2022/05/10 13:08:00;;;;;;;5.47;3.30;;;;;;;;;;1712879;82;21021;-68
2022/05/10 13:10:28;;;;;;;7.87;3.87;;;;;;;;;;1711247;83;21092;-64
2022/05/10 13:13:00;;;;;;;9.68;5.33;;;;;;;;;;1710137;84;21064;-65
2022/05/10 13:15:26;;;;;;;8.68;5.78;;;;;;;;;;1711607;84;21543;-69
2022/05/10 13:17:55;;;;;;;9.08;4.95;;;;;;;;;;1690681;84;21072;-64
2022/05/10 13:20:22;;;;;;;6.05;3.22;;;;;;;;;;1712413;83;21572;-65
2022/05/10 13:22:59;;;;;;;6.92;3.35;;;;;;;;;;1712281;84;21099;-65
2022/05/10 13:25:29;;;;;;;4.97;3.10;;;;;;;;;;1718988;83;21043;-65
2022/05/10 13:28:06;;;;;;;4.28;3.00;;;;;;;;;;1722543;82;21052;-65
2022/05/10 13:30:33;;;;;;;7.28;3.47;;;;;;;;;;1724390;83;21045;-65
2022/05/10 13:33:01;;;;;;;5.35;3.27;;;;;;;;;;1724135;82;21064;-66
2022/05/10 13:35:31;;;;;;;5.97;2.95;;;;;;;;;;1723902;82;21055;-65
2022/05/10 13:37:59;;;;;;;5.95;3.30;;;;;;;;;;1720384;83;21008;-66
2022/05/10 13:40:29;;;;;;;5.45;3.12;;;;;;;;;;1717369;83;21119;-64
2022/05/10 13:43:06;;;;;;;6.20;3.60;;;;;;;;;;1723028;82;20978;-64
2022/05/10 13:45:34;;;;;;;5.42;3.47;;;;;;;;;;1724619;83;21542;-65
2022/05/10 13:48:03;;;;;;;6.03;3.55;;;;;;;;;;1722045;83;22220;-65
2022/05/10 13:50:30;;;;;;;5.40;3.50;;;;;;;;;;1719592;83;21469;-65
2022/05/10 13:52:57;;;;;;;5.25;3.17;;;;;;;;;;1722650;82;21025;-65
2022/05/10 13:55:24;;;;;;;13.43;4.87;;;;;;;;;;1724442;83;21016;-65
2022/05/10 13:57:59;;;;;;;7.35;3.77;;;;;;;;;;1724469;82;21025;-65
2022/05/10 14:00:27;;;;;;;5.92;3.95;;;;;;;;;;1724566;83;21568;-65
2022/05/10 14:02:55;;;;;;;5.20;3.58;;;;;;;;;;1724378;82;21619;-65
2022/05/10 14:05:26;;;;;;;6.53;3.60;;;;;;;;;;1721637;82;21080;-66
2022/05/10 14:08:00;;;;;;;5.60;3.67;;;;;;;;;;1687240;85;21088;-66
2022/05/10 14:10:26;;;;;;;;;;;;;;;;;;1723092;83;21010;-66
2022/05/10 14:12:54;;;;;;;7.30;3.50;;;;;;;;;;1721340;83;20124;-66
2022/05/10 14:15:31;;;;;;;6.33;3.75;;;;;;;;;;1720120;83;21547;-66
2022/05/10 14:18:10;;;;;;;8.15;4.37;;;;;;;;;;1721237;82;21044;-66
2022/05/10 14:20:40;;;;;;;8.78;4.08;;;;;;;;;;1726727;82;21025;-66
2022/05/10 14:23:14;;;;;;;6.17;3.40;;;;;;;;;;1724155;82;21109;-64
2022/05/10 14:25:41;;;;;;;6.27;3.20;;;;;;;;;;1725534;83;21084;-65
2022/05/10 14:28:16;;;;;;;5.47;3.52;;;;;;;;;;1726141;83;21040;-66
2022/05/10 14:30:41;;;;;;;6.53;3.70;;;;;;;;;;1725947;83;21059;-63
2022/05/10 14:33:14;;;;;;;8.30;4.50;;;;;;;;;;1727469;82;21001;-66
2022/05/10 14:35:40;;;;;;;6.85;4.28;;;;;;;;;;1728096;83;21017;-66
2022/05/10 14:38:06;;;;;;;6.50;4.65;;;;;;;;;;1729493;82;21043;-66
2022/05/10 14:40:34;;;;;;;5.72;3.45;;;;;;;;;;1691150;85;21081;-67
2022/05/10 14:43:05;;;;;;;4.25;2.47;;;;;;;;;;1691849;85;21574;-66
2022/05/10 14:45:32;;;;;;;6.00;2.40;;;;;;;;;;1692842;84;21031;-66
2022/05/10 14:48:00;;;;;;;8.75;4.00;;;;;;;;;;1694623;85;21020;-65
2022/05/10 14:50:37;;;;;;;6.15;3.45;;;;;;;;;;1694851;85;21522;-66
2022/05/10 14:53:10;;;;;;;7.20;3.10;;;;;;;;;;1694755;85;21099;-69
2022/05/10 14:55:37;;;;;;;6.83;3.25;;;;;;;;;;1695293;84;21204;-67
2022/05/10 14:58:05;;;;;;;4.80;2.95;;;;;;;;;;1694543;85;21068;-68
2022/05/10 15:03:09;;;;;;;4.50;2.60;;;;;;;;;;1694291;83;21208;-68
2022/05/10 15:05:39;;;;;;;4.35;2.92;;;;;;;;;;1694320;85;21095;-68
2022/05/10 15:08:07;;;;;;;6.22;2.85;;;;;;;;;;1694119;85;21091;-69
2022/05/10 15:10:34;;;;;;;6.42;3.20;;;;;;;;;;1694962;85;21012;-70
2022/05/10 15:13:08;;;;;;;6.37;2.83;;;;;;;;;;1694843;85;21068;-68
2022/05/10 15:15:39;;;;;;;3.37;2.20;;;;;;;;;;1694606;85;21116;-69
2022/05/10 15:20:51;;;;;;;2.85;2.00;;;;;;;;;;1694893;85;21576;-69
2022/05/10 15:23:16;;;;;;;3.50;2.20;;;;;;;;;;1694686;85;21060;-69
2022/05/10 15:25:42;;;;;;;4.90;2.45;;;;;;;;;;1685445;85;21081;-68